sensor_id;sensor_type;location;lat;lon;timestamp;pressure;altitude;pressure_sealevel;temperature;humidity
35989;BME280;22064;42.672;23.282;2023-05-14T00:00:15;95072.13;;;13.62;100.00
35989;BME280;22064;42.672;23.282;2023-05-14T00:02:41;95076.69;;;13.77;100.00
35989;BME280;22064;42.672;23.282;2023-05-14T00:05:07;95068.00;;;13.72;100.00
35989;BME280;22064;42.672;23.282;2023-05-14T00:07:33;95069.06;;;13.76;100.00
35989;BME280;22064;42.672;23.282;2023-05-14T00:10:00;95059.16;;;13.83;100.00
35989;BME280;22064;42.672;23.282;2023-05-14T00:12:26;95059.72;;;13.85;100.00
35989;BME280;22064;42.672;23.282;2023-05-14T00:14:52;95039.81;;;13.84;100.00
35989;BME280;22064;42.672;23.282;2023-05-14T00:17:18;95044.00;;;13.85;100.00
35989;BME280;22064;42.672;23.282;2023-05-14T00:19:44;95043.97;;;13.80;100.00
35989;BME280;22064;42.672;23.282;2023-05-14T00:22:11;95049.97;;;13.75;100.00
35989;BME280;22064;42.672;23.282;2023-05-14T00:24:36;95044.69;;;13.70;100.00
35989;BME280;22064;42.672;23.282;2023-05-14T00:27:03;95048.41;;;13.74;100.00
35989;BME280;22064;42.672;23.282;2023-05-14T00:29:29;95038.16;;;13.73;100.00
35989;BME280;22064;42.672;23.282;2023-05-14T00:31:55;95038.44;;;13.76;100.00
35989;BME280;22064;42.672;23.282;2023-05-14T00:34:21;95034.53;;;13.79;100.00
35989;BME280;22064;42.672;23.282;2023-05-14T00:36:47;95030.59;;;13.76;100.00
35989;BME280;22064;42.672;23.282;2023-05-14T00:39:13;95046.78;;;13.68;100.00
35989;BME280;22064;42.672;23.282;2023-05-14T00:41:39;95033.09;;;13.56;100.00
35989;BME280;22064;42.672;23.282;2023-05-14T00:44:05;95036.47;;;13.56;100.00
35989;BME280;22064;42.672;23.282;2023-05-14T00:46:31;95029.69;;;13.55;100.00
35989;BME280;22064;42.672;23.282;2023-05-14T00:48:57;95042.75;;;13.55;100.00
35989;BME280;22064;42.672;23.282;2023-05-14T00:51:24;95050.56;;;13.50;100.00
35989;BME280;22064;42.672;23.282;2023-05-14T00:53:51;95032.53;;;13.54;100.00
35989;BME280;22064;42.672;23.282;2023-05-14T00:56:17;95035.41;;;13.52;100.00
35989;BME280;22064;42.672;23.282;2023-05-14T00:58:43;95030.63;;;13.44;100.00
35989;BME280;22064;42.672;23.282;2023-05-14T01:01:09;95016.78;;;13.44;100.00
35989;BME280;22064;42.672;23.282;2023-05-14T01:03:36;95032.69;;;13.42;100.00
35989;BME280;22064;42.672;23.282;2023-05-14T01:11:13;95039.25;;;13.39;100.00
35989;BME280;22064;42.672;23.282;2023-05-14T01:13:48;95023.22;;;13.36;100.00
35989;BME280;22064;42.672;23.282;2023-05-14T01:16:18;95023.72;;;13.33;100.00
35989;BME280;22064;42.672;23.282;2023-05-14T01:18:45;95029.22;;;13.31;100.00
35989;BME280;22064;42.672;23.282;2023-05-14T01:21:34;95032.34;;;13.28;100.00
35989;BME280;22064;42.672;23.282;2023-05-14T01:24:00;95045.16;;;13.30;100.00
35989;BME280;22064;42.672;23.282;2023-05-14T01:26:27;95044.53;;;13.23;100.00
35989;BME280;22064;42.672;23.282;2023-05-14T01:29:03;95047.72;;;13.25;100.00
35989;BME280;22064;42.672;23.282;2023-05-14T01:31:33;95056.66;;;13.29;100.00
35989;BME280;22064;42.672;23.282;2023-05-14T01:34:02;95050.56;;;13.23;100.00
35989;BME280;22064;42.672;23.282;2023-05-14T01:36:30;95049.53;;;13.24;100.00
35989;BME280;22064;42.672;23.282;2023-05-14T01:38:59;95047.41;;;13.21;100.00
35989;BME280;22064;42.672;23.282;2023-05-14T01:41:26;95051.91;;;13.26;100.00
35989;BME280;22064;42.672;23.282;2023-05-14T01:43:52;95052.47;;;13.28;100.00
35989;BME280;22064;42.672;23.282;2023-05-14T01:46:18;95048.03;;;13.28;100.00
35989;BME280;22064;42.672;23.282;2023-05-14T01:48:45;95055.59;;;13.25;100.00
35989;BME280;22064;42.672;23.282;2023-05-14T01:51:11;95044.25;;;13.19;100.00
35989;BME280;22064;42.672;23.282;2023-05-14T01:53:39;95047.66;;;13.20;100.00
35989;BME280;22064;42.672;23.282;2023-05-14T01:56:05;95048.91;;;13.12;100.00
35989;BME280;22064;42.672;23.282;2023-05-14T01:58:31;95062.75;;;13.12;100.00
35989;BME280;22064;42.672;23.282;2023-05-14T02:00:57;95048.06;;;13.06;100.00
35989;BME280;22064;42.672;23.282;2023-05-14T02:03:23;95055.34;;;13.04;100.00
35989;BME280;22064;42.672;23.282;2023-05-14T02:05:50;95050.59;;;13.01;100.00
35989;BME280;22064;42.672;23.282;2023-05-14T02:08:15;95047.91;;;12.91;100.00
35989;BME280;22064;42.672;23.282;2023-05-14T02:10:41;95054.69;;;12.92;100.00
35989;BME280;22064;42.672;23.282;2023-05-14T02:13:07;95048.41;;;12.88;100.00
35989;BME280;22064;42.672;23.282;2023-05-14T02:15:34;95057.28;;;12.87;100.00
35989;BME280;22064;42.672;23.282;2023-05-14T02:18:00;95040.94;;;12.75;100.00
35989;BME280;22064;42.672;23.282;2023-05-14T02:20:26;95052.59;;;12.67;100.00
35989;BME280;22064;42.672;23.282;2023-05-14T02:22:52;95064.47;;;12.75;100.00
35989;BME280;22064;42.672;23.282;2023-05-14T02:25:18;95070.47;;;12.75;100.00
35989;BME280;22064;42.672;23.282;2023-05-14T02:27:44;95058.81;;;12.61;100.00
35989;BME280;22064;42.672;23.282;2023-05-14T02:30:10;95066.63;;;12.61;100.00
35989;BME280;22064;42.672;23.282;2023-05-14T02:32:37;95065.28;;;12.58;100.00
35989;BME280;22064;42.672;23.282;2023-05-14T02:35:04;95060.50;;;12.50;100.00
35989;BME280;22064;42.672;23.282;2023-05-14T02:37:30;95065.00;;;12.55;100.00
35989;BME280;22064;42.672;23.282;2023-05-14T02:39:55;95072.97;;;12.43;100.00
35989;BME280;22064;42.672;23.282;2023-05-14T02:42:21;95083.41;;;12.43;100.00
35989;BME280;22064;42.672;23.282;2023-05-14T02:44:47;95077.16;;;12.44;100.00
35989;BME280;22064;42.672;23.282;2023-05-14T02:47:13;95079.75;;;12.44;100.00
35989;BME280;22064;42.672;23.282;2023-05-14T02:49:39;95089.16;;;12.45;100.00
35989;BME280;22064;42.672;23.282;2023-05-14T02:52:05;95086.34;;;12.46;100.00
35989;BME280;22064;42.672;23.282;2023-05-14T02:54:31;95099.50;;;12.57;100.00
35989;BME280;22064;42.672;23.282;2023-05-14T02:56:57;95103.16;;;12.56;100.00
35989;BME280;22064;42.672;23.282;2023-05-14T02:59:23;95096.59;;;12.53;100.00
35989;BME280;22064;42.672;23.282;2023-05-14T03:01:49;95088.19;;;12.51;100.00
35989;BME280;22064;42.672;23.282;2023-05-14T03:04:15;95101.88;;;12.58;100.00
35989;BME280;22064;42.672;23.282;2023-05-14T03:06:41;95096.63;;;12.58;100.00
35989;BME280;22064;42.672;23.282;2023-05-14T03:09:07;95081.53;;;12.60;100.00
35989;BME280;22064;42.672;23.282;2023-05-14T03:11:33;95066.91;;;12.59;100.00
35989;BME280;22064;42.672;23.282;2023-05-14T03:14:01;95050.66;;;12.57;100.00
35989;BME280;22064;42.672;23.282;2023-05-14T03:16:27;95061.38;;;12.56;100.00
35989;BME280;22064;42.672;23.282;2023-05-14T03:18:52;95063.78;;;12.40;100.00
35989;BME280;22064;42.672;23.282;2023-05-14T03:21:18;95066.09;;;12.37;100.00
35989;BME280;22064;42.672;23.282;2023-05-14T03:23:44;95065.78;;;12.33;100.00
35989;BME280;22064;42.672;23.282;2023-05-14T03:26:10;95064.38;;;12.25;100.00
35989;BME280;22064;42.672;23.282;2023-05-14T03:28:36;95054.53;;;12.11;100.00
35989;BME280;22064;42.672;23.282;2023-05-14T03:31:02;95074.06;;;12.08;100.00
35989;BME280;22064;42.672;23.282;2023-05-14T03:33:29;95075.56;;;12.04;100.00
35989;BME280;22064;42.672;23.282;2023-05-14T03:35:55;95085.88;;;11.94;100.00
35989;BME280;22064;42.672;23.282;2023-05-14T03:38:21;95088.97;;;11.91;100.00
35989;BME280;22064;42.672;23.282;2023-05-14T03:40:47;95074.16;;;11.79;100.00
35989;BME280;22064;42.672;23.282;2023-05-14T03:43:13;95061.25;;;11.73;100.00
35989;BME280;22064;42.672;23.282;2023-05-14T03:45:39;95065.88;;;11.66;100.00
35989;BME280;22064;42.672;23.282;2023-05-14T03:48:05;95074.56;;;11.71;100.00
35989;BME280;22064;42.672;23.282;2023-05-14T03:50:31;95063.63;;;11.57;100.00
35989;BME280;22064;42.672;23.282;2023-05-14T03:52:58;95072.66;;;11.67;100.00
35989;BME280;22064;42.672;23.282;2023-05-14T03:55:24;95074.47;;;11.66;100.00
35989;BME280;22064;42.672;23.282;2023-05-14T03:57:50;95072.44;;;11.68;100.00
35989;BME280;22064;42.672;23.282;2023-05-14T04:00:16;95075.09;;;11.73;100.00
35989;BME280;22064;42.672;23.282;2023-05-14T04:02:44;95079.31;;;11.74;100.00
35989;BME280;22064;42.672;23.282;2023-05-14T04:05:11;95058.50;;;11.63;100.00
35989;BME280;22064;42.672;23.282;2023-05-14T04:07:36;95081.09;;;11.74;100.00
35989;BME280;22064;42.672;23.282;2023-05-14T04:10:02;95074.72;;;11.82;100.00
35989;BME280;22064;42.672;23.282;2023-05-14T04:12:29;95080.56;;;11.89;100.00
35989;BME280;22064;42.672;23.282;2023-05-14T04:14:57;95097.09;;;11.94;100.00
35989;BME280;22064;42.672;23.282;2023-05-14T04:17:23;95101.38;;;12.00;100.00
35989;BME280;22064;42.672;23.282;2023-05-14T04:19:49;95096.47;;;12.04;100.00
35989;BME280;22064;42.672;23.282;2023-05-14T04:22:15;95095.91;;;12.02;100.00
35989;BME280;22064;42.672;23.282;2023-05-14T04:24:41;95095.19;;;12.07;100.00
35989;BME280;22064;42.672;23.282;2023-05-14T04:27:07;95101.75;;;12.09;100.00
35989;BME280;22064;42.672;23.282;2023-05-14T04:29:32;95109.03;;;12.07;100.00
35989;BME280;22064;42.672;23.282;2023-05-14T04:31:58;95119.59;;;12.17;100.00
35989;BME280;22064;42.672;23.282;2023-05-14T04:34:25;95109.16;;;12.17;100.00
35989;BME280;22064;42.672;23.282;2023-05-14T04:36:51;95108.00;;;12.08;100.00
35989;BME280;22064;42.672;23.282;2023-05-14T04:39:17;95118.81;;;12.17;100.00
35989;BME280;22064;42.672;23.282;2023-05-14T04:41:43;95130.13;;;12.22;100.00
35989;BME280;22064;42.672;23.282;2023-05-14T04:44:11;95123.97;;;12.29;100.00
35989;BME280;22064;42.672;23.282;2023-05-14T04:46:37;95138.19;;;12.38;100.00
35989;BME280;22064;42.672;23.282;2023-05-14T04:49:04;95143.53;;;12.48;100.00
35989;BME280;22064;42.672;23.282;2023-05-14T04:51:30;95145.00;;;12.61;100.00
35989;BME280;22064;42.672;23.282;2023-05-14T04:53:56;95145.19;;;12.76;100.00
35989;BME280;22064;42.672;23.282;2023-05-14T04:56:22;95159.72;;;12.89;100.00
35989;BME280;22064;42.672;23.282;2023-05-14T04:58:48;95157.75;;;12.96;100.00
35989;BME280;22064;42.672;23.282;2023-05-14T05:01:14;95166.97;;;13.04;100.00
35989;BME280;22064;42.672;23.282;2023-05-14T05:03:40;95172.28;;;13.09;100.00
35989;BME280;22064;42.672;23.282;2023-05-14T05:06:06;95179.47;;;12.80;100.00
35989;BME280;22064;42.672;23.282;2023-05-14T05:08:32;95169.75;;;12.75;100.00
35989;BME280;22064;42.672;23.282;2023-05-14T05:10:58;95173.53;;;12.84;100.00
35989;BME280;22064;42.672;23.282;2023-05-14T05:13:24;95192.13;;;12.88;100.00
35989;BME280;22064;42.672;23.282;2023-05-14T05:15:50;95180.59;;;12.84;100.00
35989;BME280;22064;42.672;23.282;2023-05-14T05:18:16;95185.63;;;12.68;100.00
35989;BME280;22064;42.672;23.282;2023-05-14T05:20:42;95183.28;;;12.50;100.00
35989;BME280;22064;42.672;23.282;2023-05-14T05:23:08;95199.59;;;12.23;100.00
35989;BME280;22064;42.672;23.282;2023-05-14T05:25:34;95199.84;;;12.22;100.00
35989;BME280;22064;42.672;23.282;2023-05-14T05:28:01;95190.19;;;12.22;100.00
35989;BME280;22064;42.672;23.282;2023-05-14T05:30:26;95193.09;;;12.26;100.00
35989;BME280;22064;42.672;23.282;2023-05-14T05:32:52;95196.72;;;12.08;100.00
35989;BME280;22064;42.672;23.282;2023-05-14T05:35:18;95201.75;;;11.81;100.00
35989;BME280;22064;42.672;23.282;2023-05-14T05:37:44;95194.69;;;11.65;100.00
35989;BME280;22064;42.672;23.282;2023-05-14T05:40:11;95193.09;;;11.64;100.00
35989;BME280;22064;42.672;23.282;2023-05-14T05:42:39;95202.28;;;11.66;100.00
35989;BME280;22064;42.672;23.282;2023-05-14T05:45:06;95203.69;;;11.86;100.00
35989;BME280;22064;42.672;23.282;2023-05-14T05:47:32;95199.09;;;11.93;100.00
35989;BME280;22064;42.672;23.282;2023-05-14T05:49:58;95212.09;;;11.59;100.00
35989;BME280;22064;42.672;23.282;2023-05-14T05:52:24;95205.25;;;11.29;100.00
35989;BME280;22064;42.672;23.282;2023-05-14T05:54:50;95214.16;;;11.05;100.00
35989;BME280;22064;42.672;23.282;2023-05-14T05:57:16;95206.59;;;10.92;100.00
35989;BME280;22064;42.672;23.282;2023-05-14T05:59:42;95198.72;;;10.75;100.00
35989;BME280;22064;42.672;23.282;2023-05-14T06:02:08;95193.63;;;10.56;100.00
35989;BME280;22064;42.672;23.282;2023-05-14T06:04:34;95186.81;;;10.55;100.00
35989;BME280;22064;42.672;23.282;2023-05-14T06:07:00;95197.03;;;10.57;100.00
35989;BME280;22064;42.672;23.282;2023-05-14T06:09:26;95203.25;;;10.44;100.00
35989;BME280;22064;42.672;23.282;2023-05-14T06:11:52;95202.47;;;10.44;100.00
35989;BME280;22064;42.672;23.282;2023-05-14T06:14:18;95223.41;;;10.49;100.00
35989;BME280;22064;42.672;23.282;2023-05-14T06:16:44;95213.56;;;10.51;100.00
35989;BME280;22064;42.672;23.282;2023-05-14T06:19:10;95215.59;;;10.49;100.00
35989;BME280;22064;42.672;23.282;2023-05-14T06:21:35;95203.69;;;10.53;100.00
35989;BME280;22064;42.672;23.282;2023-05-14T06:24:01;95187.19;;;10.47;100.00
35989;BME280;22064;42.672;23.282;2023-05-14T06:26:28;95201.13;;;10.41;100.00
35989;BME280;22064;42.672;23.282;2023-05-14T06:28:53;95215.16;;;10.28;100.00
35989;BME280;22064;42.672;23.282;2023-05-14T06:31:19;95223.84;;;10.34;100.00
35989;BME280;22064;42.672;23.282;2023-05-14T06:33:45;95214.00;;;10.36;100.00
35989;BME280;22064;42.672;23.282;2023-05-14T06:36:11;95223.50;;;10.42;100.00
35989;BME280;22064;42.672;23.282;2023-05-14T06:38:37;95223.75;;;10.40;100.00
35989;BME280;22064;42.672;23.282;2023-05-14T06:41:03;95217.41;;;10.36;100.00
35989;BME280;22064;42.672;23.282;2023-05-14T06:43:29;95214.31;;;10.28;100.00
35989;BME280;22064;42.672;23.282;2023-05-14T06:45:55;95219.16;;;10.24;100.00
35989;BME280;22064;42.672;23.282;2023-05-14T06:48:20;95217.41;;;10.36;100.00
35989;BME280;22064;42.672;23.282;2023-05-14T06:50:47;95215.13;;;10.40;100.00
35989;BME280;22064;42.672;23.282;2023-05-14T06:53:13;95205.16;;;10.25;100.00
35989;BME280;22064;42.672;23.282;2023-05-14T06:55:40;95203.31;;;10.14;100.00
35989;BME280;22064;42.672;23.282;2023-05-14T06:58:06;95186.13;;;10.13;100.00
35989;BME280;22064;42.672;23.282;2023-05-14T07:00:32;95196.63;;;10.18;100.00
35989;BME280;22064;42.672;23.282;2023-05-14T07:02:59;95191.28;;;10.31;100.00
35989;BME280;22064;42.672;23.282;2023-05-14T07:05:25;95201.91;;;10.53;100.00
35989;BME280;22064;42.672;23.282;2023-05-14T07:07:51;95201.53;;;10.61;100.00
35989;BME280;22064;42.672;23.282;2023-05-14T07:10:17;95196.91;;;10.75;100.00
35989;BME280;22064;42.672;23.282;2023-05-14T07:12:43;95193.13;;;10.95;100.00
35989;BME280;22064;42.672;23.282;2023-05-14T07:15:09;95214.75;;;11.07;100.00
35989;BME280;22064;42.672;23.282;2023-05-14T07:17:36;95229.34;;;11.08;100.00
35989;BME280;22064;42.672;23.282;2023-05-14T07:20:02;95235.47;;;11.02;100.00
35989;BME280;22064;42.672;23.282;2023-05-14T07:22:28;95226.41;;;11.04;100.00
35989;BME280;22064;42.672;23.282;2023-05-14T07:24:54;95221.53;;;10.96;100.00
35989;BME280;22064;42.672;23.282;2023-05-14T07:27:20;95219.03;;;11.13;100.00
35989;BME280;22064;42.672;23.282;2023-05-14T07:29:46;95227.81;;;11.36;100.00
35989;BME280;22064;42.672;23.282;2023-05-14T07:32:12;95214.09;;;11.40;100.00
35989;BME280;22064;42.672;23.282;2023-05-14T07:34:38;95227.94;;;11.57;100.00
35989;BME280;22064;42.672;23.282;2023-05-14T07:37:05;95233.59;;;11.66;100.00
35989;BME280;22064;42.672;23.282;2023-05-14T07:39:31;95232.81;;;11.66;100.00
35989;BME280;22064;42.672;23.282;2023-05-14T07:41:56;95228.13;;;11.68;100.00
35989;BME280;22064;42.672;23.282;2023-05-14T07:44:23;95208.31;;;11.38;100.00
35989;BME280;22064;42.672;23.282;2023-05-14T07:46:48;95225.94;;;11.19;100.00
35989;BME280;22064;42.672;23.282;2023-05-14T07:49:14;95212.91;;;11.19;100.00
35989;BME280;22064;42.672;23.282;2023-05-14T07:51:43;95241.56;;;11.19;100.00
35989;BME280;22064;42.672;23.282;2023-05-14T07:54:09;95240.88;;;11.24;100.00
35989;BME280;22064;42.672;23.282;2023-05-14T07:56:36;95242.34;;;11.20;100.00
35989;BME280;22064;42.672;23.282;2023-05-14T07:59:02;95240.25;;;11.33;100.00
35989;BME280;22064;42.672;23.282;2023-05-14T08:01:27;95239.09;;;11.53;100.00
35989;BME280;22064;42.672;23.282;2023-05-14T08:03:53;95244.50;;;11.63;100.00
35989;BME280;22064;42.672;23.282;2023-05-14T08:06:19;95251.13;;;11.42;100.00
35989;BME280;22064;42.672;23.282;2023-05-14T08:08:47;95252.22;;;11.58;100.00
35989;BME280;22064;42.672;23.282;2023-05-14T08:11:13;95244.81;;;11.38;100.00
35989;BME280;22064;42.672;23.282;2023-05-14T08:13:39;95227.63;;;11.25;100.00
35989;BME280;22064;42.672;23.282;2023-05-14T08:16:05;95208.78;;;11.23;100.00
35989;BME280;22064;42.672;23.282;2023-05-14T08:18:32;95204.59;;;11.34;100.00
35989;BME280;22064;42.672;23.282;2023-05-14T08:20:57;95213.19;;;11.35;100.00
35989;BME280;22064;42.672;23.282;2023-05-14T08:23:23;95219.78;;;11.25;100.00
35989;BME280;22064;42.672;23.282;2023-05-14T08:25:49;95203.69;;;11.28;100.00
35989;BME280;22064;42.672;23.282;2023-05-14T08:28:15;95213.56;;;11.15;100.00
35989;BME280;22064;42.672;23.282;2023-05-14T08:30:41;95203.84;;;11.10;100.00
35989;BME280;22064;42.672;23.282;2023-05-14T08:33:07;95213.81;;;11.13;100.00
35989;BME280;22064;42.672;23.282;2023-05-14T08:35:33;95209.63;;;11.12;100.00
35989;BME280;22064;42.672;23.282;2023-05-14T08:37:59;95207.56;;;11.14;100.00
35989;BME280;22064;42.672;23.282;2023-05-14T08:40:25;95195.13;;;11.04;100.00
35989;BME280;22064;42.672;23.282;2023-05-14T08:42:51;95185.50;;;11.05;100.00
35989;BME280;22064;42.672;23.282;2023-05-14T08:45:20;95194.00;;;11.12;100.00
35989;BME280;22064;42.672;23.282;2023-05-14T08:47:48;95176.41;;;11.19;100.00
35989;BME280;22064;42.672;23.282;2023-05-14T08:50:17;95201.72;;;11.07;100.00
35989;BME280;22064;42.672;23.282;2023-05-14T08:52:44;95207.94;;;11.06;100.00
35989;BME280;22064;42.672;23.282;2023-05-14T08:55:11;95200.31;;;11.16;100.00
35989;BME280;22064;42.672;23.282;2023-05-14T08:57:37;95198.94;;;11.25;100.00
35989;BME280;22064;42.672;23.282;2023-05-14T09:00:04;95186.44;;;11.27;100.00
35989;BME280;22064;42.672;23.282;2023-05-14T09:02:34;95198.03;;;11.20;100.00
35989;BME280;22064;42.672;23.282;2023-05-14T09:05:04;95204.06;;;11.08;100.00
35989;BME280;22064;42.672;23.282;2023-05-14T09:07:32;95197.91;;;11.26;100.00
35989;BME280;22064;42.672;23.282;2023-05-14T09:10:00;95188.97;;;11.51;100.00
35989;BME280;22064;42.672;23.282;2023-05-14T09:12:27;95180.75;;;11.30;100.00
35989;BME280;22064;42.672;23.282;2023-05-14T09:14:53;95179.72;;;11.43;100.00
35989;BME280;22064;42.672;23.282;2023-05-14T09:17:19;95181.94;;;11.51;100.00
35989;BME280;22064;42.672;23.282;2023-05-14T09:19:46;95186.84;;;11.48;100.00
35989;BME280;22064;42.672;23.282;2023-05-14T09:22:16;95182.81;;;11.57;100.00
35989;BME280;22064;42.672;23.282;2023-05-14T09:24:42;95194.66;;;11.48;100.00
35989;BME280;22064;42.672;23.282;2023-05-14T09:27:17;95195.41;;;11.60;100.00
35989;BME280;22064;42.672;23.282;2023-05-14T09:29:44;95175.16;;;11.50;100.00
35989;BME280;22064;42.672;23.282;2023-05-14T09:32:10;95178.63;;;11.56;100.00
35989;BME280;22064;42.672;23.282;2023-05-14T09:34:36;95176.22;;;11.38;100.00
35989;BME280;22064;42.672;23.282;2023-05-14T09:37:07;95197.16;;;11.43;100.00
35989;BME280;22064;42.672;23.282;2023-05-14T09:39:35;95183.44;;;11.47;100.00
35989;BME280;22064;42.672;23.282;2023-05-14T09:42:01;95169.88;;;11.33;100.00
35989;BME280;22064;42.672;23.282;2023-05-14T09:44:28;95166.63;;;11.26;100.00
35989;BME280;22064;42.672;23.282;2023-05-14T09:46:54;95160.06;;;11.24;100.00
35989;BME280;22064;42.672;23.282;2023-05-14T09:49:21;95156.44;;;11.25;100.00
35989;BME280;22064;42.672;23.282;2023-05-14T09:51:50;95158.34;;;11.29;100.00
35989;BME280;22064;42.672;23.282;2023-05-14T09:54:16;95163.59;;;11.18;100.00
35989;BME280;22064;42.672;23.282;2023-05-14T09:56:42;95158.44;;;11.06;100.00
35989;BME280;22064;42.672;23.282;2023-05-14T09:59:08;95171.22;;;11.07;100.00
35989;BME280;22064;42.672;23.282;2023-05-14T10:01:36;95168.00;;;11.17;100.00
35989;BME280;22064;42.672;23.282;2023-05-14T10:04:05;95145.94;;;11.08;100.00
35989;BME280;22064;42.672;23.282;2023-05-14T10:06:35;95134.41;;;11.04;100.00
35989;BME280;22064;42.672;23.282;2023-05-14T10:09:04;95140.41;;;11.04;100.00
35989;BME280;22064;42.672;23.282;2023-05-14T10:11:33;95143.91;;;11.10;100.00
35989;BME280;22064;42.672;23.282;2023-05-14T10:14:10;95136.13;;;11.27;100.00
35989;BME280;22064;42.672;23.282;2023-05-14T10:16:46;95121.84;;;11.29;100.00
35989;BME280;22064;42.672;23.282;2023-05-14T10:19:15;95108.84;;;11.18;100.00
35989;BME280;22064;42.672;23.282;2023-05-14T10:21:45;95098.72;;;11.04;100.00
35989;BME280;22064;42.672;23.282;2023-05-14T10:24:14;95120.59;;;11.03;100.00
35989;BME280;22064;42.672;23.282;2023-05-14T10:26:41;95137.31;;;11.19;100.00
35989;BME280;22064;42.672;23.282;2023-05-14T10:29:10;95136.88;;;11.10;100.00
35989;BME280;22064;42.672;23.282;2023-05-14T10:31:52;95137.69;;;10.99;100.00
35989;BME280;22064;42.672;23.282;2023-05-14T10:34:38;95140.41;;;11.04;100.00
35989;BME280;22064;42.672;23.282;2023-05-14T10:37:08;95127.38;;;11.04;100.00
35989;BME280;22064;42.672;23.282;2023-05-14T10:39:52;95131.09;;;11.08;100.00
35989;BME280;22064;42.672;23.282;2023-05-14T10:42:26;95149.31;;;11.20;100.00
35989;BME280;22064;42.672;23.282;2023-05-14T10:45:03;95134.03;;;11.41;100.00
35989;BME280;22064;42.672;23.282;2023-05-14T10:47:32;95133.16;;;11.52;100.00
35989;BME280;22064;42.672;23.282;2023-05-14T10:50:00;95125.19;;;11.59;100.00
35989;BME280;22064;42.672;23.282;2023-05-14T10:52:28;95132.56;;;11.78;100.00
35989;BME280;22064;42.672;23.282;2023-05-14T10:54:55;95128.72;;;11.98;100.00
35989;BME280;22064;42.672;23.282;2023-05-14T10:57:23;95102.06;;;11.79;100.00
35989;BME280;22064;42.672;23.282;2023-05-14T10:59:52;95103.25;;;11.71;100.00
35989;BME280;22064;42.672;23.282;2023-05-14T11:05:03;95115.75;;;12.03;100.00
35989;BME280;22064;42.672;23.282;2023-05-14T11:07:32;95127.03;;;12.25;100.00
35989;BME280;22064;42.672;23.282;2023-05-14T11:10:04;95123.81;;;12.18;100.00
35989;BME280;22064;42.672;23.282;2023-05-14T11:12:31;95127.22;;;12.02;100.00
35989;BME280;22064;42.672;23.282;2023-05-14T11:14:59;95113.13;;;12.20;100.00
35989;BME280;22064;42.672;23.282;2023-05-14T11:17:26;95119.81;;;12.33;100.00
35989;BME280;22064;42.672;23.282;2023-05-14T11:19:54;95127.94;;;12.53;100.00
35989;BME280;22064;42.672;23.282;2023-05-14T11:22:20;95116.53;;;12.59;100.00
35989;BME280;22064;42.672;23.282;2023-05-14T11:24:47;95121.94;;;12.53;100.00
35989;BME280;22064;42.672;23.282;2023-05-14T11:27:13;95116.94;;;12.51;100.00
35989;BME280;22064;42.672;23.282;2023-05-14T11:29:43;95113.34;;;12.35;100.00
35989;BME280;22064;42.672;23.282;2023-05-14T11:32:09;95103.97;;;12.39;100.00
35989;BME280;22064;42.672;23.282;2023-05-14T11:34:35;95101.44;;;12.44;100.00
35989;BME280;22064;42.672;23.282;2023-05-14T11:37:06;95115.00;;;12.63;100.00
35989;BME280;22064;42.672;23.282;2023-05-14T11:39:33;95116.22;;;12.78;100.00
35989;BME280;22064;42.672;23.282;2023-05-14T11:42:10;95107.53;;;12.72;100.00
35989;BME280;22064;42.672;23.282;2023-05-14T11:44:37;95095.19;;;12.67;100.00
35989;BME280;22064;42.672;23.282;2023-05-14T11:47:03;95098.09;;;12.49;100.00
35989;BME280;22064;42.672;23.282;2023-05-14T11:49:30;95084.88;;;12.34;100.00
35989;BME280;22064;42.672;23.282;2023-05-14T11:52:04;95098.75;;;12.39;100.00
35989;BME280;22064;42.672;23.282;2023-05-14T11:54:32;95096.28;;;12.28;100.00
35989;BME280;22064;42.672;23.282;2023-05-14T11:56:59;95088.00;;;12.36;100.00
35989;BME280;22064;42.672;23.282;2023-05-14T11:59:27;95088.19;;;12.29;100.00
35989;BME280;22064;42.672;23.282;2023-05-14T12:02:00;95094.56;;;12.38;100.00
35989;BME280;22064;42.672;23.282;2023-05-14T12:04:27;95083.75;;;12.52;100.00
35989;BME280;22064;42.672;23.282;2023-05-14T12:06:57;95081.22;;;12.57;100.00
35989;BME280;22064;42.672;23.282;2023-05-14T12:09:23;95077.84;;;12.83;100.00
35989;BME280;22064;42.672;23.282;2023-05-14T12:11:50;95080.41;;;13.00;100.00
35989;BME280;22064;42.672;23.282;2023-05-14T12:14:21;95062.41;;;13.04;100.00
35989;BME280;22064;42.672;23.282;2023-05-14T12:16:48;95064.47;;;13.02;100.00
35989;BME280;22064;42.672;23.282;2023-05-14T12:19:18;95054.81;;;13.02;100.00
35989;BME280;22064;42.672;23.282;2023-05-14T12:21:46;95043.63;;;13.34;100.00
35989;BME280;22064;42.672;23.282;2023-05-14T12:24:15;95042.16;;;13.48;100.00
35989;BME280;22064;42.672;23.282;2023-05-14T12:26:46;95032.69;;;13.42;100.00
35989;BME280;22064;42.672;23.282;2023-05-14T12:29:14;95032.41;;;13.11;100.00
35989;BME280;22064;42.672;23.282;2023-05-14T12:31:47;95035.13;;;13.22;100.00
35989;BME280;22064;42.672;23.282;2023-05-14T12:34:14;95017.75;;;13.10;100.00
35989;BME280;22064;42.672;23.282;2023-05-14T12:36:41;95035.91;;;12.95;100.00
35989;BME280;22064;42.672;23.282;2023-05-14T12:39:09;95030.28;;;12.81;100.00
35989;BME280;22064;42.672;23.282;2023-05-14T12:41:35;95030.03;;;12.83;100.00
35989;BME280;22064;42.672;23.282;2023-05-14T12:44:03;95026.91;;;12.81;100.00
35989;BME280;22064;42.672;23.282;2023-05-14T12:46:29;95020.84;;;12.80;100.00